KTVC/TVC METAR and TAF weather

Enter ICAO airport designator
Station Type Date Time Source
KTVC METAR 2021/07/29 02:53 UTC NOAA

KTVC 290253Z AUTO 00000KT 4SM RA FEW075 SCT090 OVC110 24/21 A2991 RMK AO2 RAB16 PRESFR SLP126 P0004 60004 T02390206 55001


Station Type Date Time Source
KTVC Decoded METAR 2021/07/29 02:53 UTC NOAA

CHERRY CAPITAL AIRPORT, MI, United States (KTVC) 44-44N 085-34W 190M
Jul 28, 2021 - 10:53 PM EDT / 2021.07.29 0253 UTC
Wind: Calm:0
Visibility: 4 mile(s):0
Sky conditions: overcast
Weather: rain
Precipitation last hour: 0.04 inches
Temperature: 75.0 F (23.9 C)
Dew Point: 69.1 F (20.6 C)
Relative Humidity: 81%
Pressure (altimeter): 29.91 in. Hg (1012 hPa)
Pressure tendency: falling rapidly - 0.00 inches (0.1 hPa) lower than three hours ago
ob: KTVC 290253Z AUTO 00000KT 4SM RA FEW075 SCT090 OVC110 24/21 A2991 RMK AO2 RAB16 PRESFR SLP126 P0004 60004 T02390206 55001
cycle: 3

Station Type Date Time Source
KTVC TAF 2021/07/29 02:45 UTC NOAA

TAF
AMD KTVC 290142Z 2902/2924 VRB03KT 6SM -SHRA VCTS SCT025 OVC050CB
FM291200 33009KT P6SM BKN025
FM291800 35013G22KT P6SM SCT040

Example: see airport list